Time;durP1;ratioP1;P1;durP2;ratioP2;P2;SDS_P1;SDS_P2;PMS_P1;PMS_P2;Temp;Humidity;BMP_temperature;BMP_pressure;BME280_temperature;BME280_humidity;BME280_pressure;Samples;Min_cycle;Max_cycle;Signal;HPM_P1;HPM_P2
2021/06/20 00:01:58;;;;;;;24.10;18.15;;;;;;;;;;5064510;28;20639;-74
2021/06/20 00:04:23;;;;;;;20.88;17.88;;;;;;;;;;5063325;28;20201;-73
2021/06/20 00:06:49;;;;;;;22.75;18.27;;;;;;;;;;5069056;28;20554;-73
2021/06/20 00:09:15;;;;;;;24.83;17.80;;;;;;;;;;5061389;28;20183;-73
2021/06/20 00:11:41;;;;;;;23.77;18.30;;;;;;;;;;5060640;28;20169;-74
2021/06/20 00:14:07;;;;;;;20.65;16.77;;;;;;;;;;5067696;28;20217;-73
2021/06/20 00:16:32;;;;;;;21.63;17.90;;;;;;;;;;5064402;28;20268;-74
2021/06/20 00:18:58;;;;;;;20.80;16.58;;;;;;;;;;5067984;28;20199;-73
2021/06/20 00:21:24;;;;;;;20.42;15.75;;;;;;;;;;5067765;28;20249;-74
2021/06/20 00:23:49;;;;;;;20.60;16.77;;;;;;;;;;5046390;28;20204;-73
2021/06/20 00:26:14;;;;;;;18.17;15.32;;;;;;;;;;5051517;28;20597;-73
2021/06/20 00:28:40;;;;;;;18.23;15.88;;;;;;;;;;5052441;28;20180;-73
2021/06/20 00:31:05;;;;;;;18.20;14.75;;;;;;;;;;5051162;28;20288;-73
2021/06/20 00:33:30;;;;;;;19.55;15.70;;;;;;;;;;5051853;28;20211;-73
2021/06/20 00:35:57;;;;;;;16.63;13.52;;;;;;;;;;5053567;28;20611;-74
2021/06/20 00:38:22;;;;;;;19.65;14.40;;;;;;;;;;5051742;28;20559;-73
2021/06/20 00:40:47;;;;;;;18.95;15.05;;;;;;;;;;5053522;28;20214;-73
2021/06/20 00:43:13;;;;;;;17.63;14.73;;;;;;;;;;5051557;28;20196;-73
2021/06/20 00:45:39;;;;;;;21.45;13.88;;;;;;;;;;5058627;28;20280;-73
2021/06/20 00:48:05;;;;;;;20.90;15.70;;;;;;;;;;5053329;28;20284;-72
2021/06/20 00:50:30;;;;;;;16.42;14.43;;;;;;;;;;5051576;28;20181;-73
2021/06/20 00:53:02;;;;;;;16.98;14.88;;;;;;;;;;5052812;28;20201;-73
2021/06/20 00:55:28;;;;;;;18.77;14.77;;;;;;;;;;5052887;28;20185;-73
2021/06/20 00:57:54;;;;;;;18.95;14.93;;;;;;;;;;5049926;28;20276;-72
2021/06/20 01:00:19;;;;;;;19.42;16.52;;;;;;;;;;5052072;28;20208;-72
2021/06/20 01:02:46;;;;;;;17.67;14.77;;;;;;;;;;5051897;28;20184;-73
2021/06/20 01:05:11;;;;;;;18.98;15.15;;;;;;;;;;5052279;28;20193;-73
2021/06/20 01:07:37;;;;;;;17.67;15.50;;;;;;;;;;5055939;28;20192;-73
2021/06/20 01:10:04;;;;;;;22.08;16.92;;;;;;;;;;5056269;28;20189;-72
2021/06/20 01:12:29;;;;;;;21.08;16.40;;;;;;;;;;5054531;28;20205;-72
2021/06/20 01:14:54;;;;;;;21.65;16.85;;;;;;;;;;5058595;28;20196;-72
2021/06/20 01:17:20;;;;;;;21.50;17.13;;;;;;;;;;5053682;28;20180;-72
2021/06/20 01:19:46;;;;;;;21.08;17.02;;;;;;;;;;5047463;28;20551;-73
2021/06/20 01:22:21;;;;;;;20.50;16.15;;;;;;;;;;5053926;28;20180;-72
2021/06/20 01:24:51;;;;;;;23.30;17.15;;;;;;;;;;5051084;28;20196;-72
2021/06/20 01:27:16;;;;;;;20.23;17.10;;;;;;;;;;5065640;28;20180;-72
2021/06/20 01:29:48;;;;;;;23.02;18.48;;;;;;;;;;5051777;28;20564;-72
2021/06/20 01:32:17;;;;;;;23.00;18.27;;;;;;;;;;5051057;28;20184;-71
2021/06/20 01:34:46;;;;;;;23.10;18.58;;;;;;;;;;5048796;28;20189;-73
2021/06/20 01:37:13;;;;;;;25.60;19.55;;;;;;;;;;5051990;28;20178;-73
2021/06/20 01:39:39;;;;;;;26.50;19.55;;;;;;;;;;5066554;28;20548;-73
2021/06/20 01:42:05;;;;;;;23.65;19.40;;;;;;;;;;5064711;28;20185;-72
2021/06/20 01:44:30;;;;;;;24.27;18.27;;;;;;;;;;5049991;28;20192;-73
2021/06/20 01:46:55;;;;;;;23.77;20.05;;;;;;;;;;5050863;28;20184;-73
2021/06/20 01:49:21;;;;;;;23.92;19.52;;;;;;;;;;5052829;28;20191;-73
2021/06/20 01:51:46;;;;;;;23.27;19.45;;;;;;;;;;5054003;28;21713;-73
2021/06/20 01:54:11;;;;;;;24.95;19.45;;;;;;;;;;5056130;28;20204;-73
2021/06/20 01:56:37;;;;;;;23.63;18.63;;;;;;;;;;5057023;28;22120;-73
2021/06/20 01:59:02;;;;;;;26.10;19.65;;;;;;;;;;5055440;28;20196;-73
2021/06/20 02:01:30;;;;;;;25.63;20.67;;;;;;;;;;5064110;28;20235;-73
2021/06/20 02:03:55;;;;;;;25.08;19.90;;;;;;;;;;5056993;28;20203;-74
2021/06/20 02:06:20;;;;;;;23.88;19.50;;;;;;;;;;5063302;28;20184;-74
2021/06/20 02:08:45;;;;;;;24.67;19.13;;;;;;;;;;5055850;28;20645;-74
2021/06/20 02:11:11;;;;;;;21.25;17.35;;;;;;;;;;5056883;28;20201;-74
2021/06/20 02:13:36;;;;;;;21.40;17.73;;;;;;;;;;5054999;28;20212;-73
2021/06/20 02:16:02;;;;;;;22.83;18.10;;;;;;;;;;5056475;28;20184;-74
2021/06/20 02:18:27;;;;;;;13.43;11.73;;;;;;;;;;5053307;28;20177;-72
2021/06/20 02:20:54;;;;;;;11.05;9.57;;;;;;;;;;5055229;28;20181;-74
2021/06/20 02:23:19;;;;;;;10.15;8.45;;;;;;;;;;5053470;28;20204;-73
2021/06/20 02:25:44;;;;;;;10.63;8.63;;;;;;;;;;5061030;28;20552;-74
2021/06/20 02:28:10;;;;;;;9.45;8.07;;;;;;;;;;5052543;28;20238;-72
2021/06/20 02:30:35;;;;;;;7.80;6.97;;;;;;;;;;5055434;28;20216;-73
2021/06/20 02:33:00;;;;;;;7.32;6.57;;;;;;;;;;5052521;28;20201;-73
2021/06/20 02:35:26;;;;;;;7.35;5.75;;;;;;;;;;5056015;28;20280;-74
2021/06/20 02:37:51;;;;;;;5.28;4.25;;;;;;;;;;5055101;28;20209;-73
2021/06/20 02:40:17;;;;;;;5.05;3.88;;;;;;;;;;5056419;28;20190;-73
2021/06/20 02:42:43;;;;;;;3.80;3.40;;;;;;;;;;5058597;28;20650;-73
2021/06/20 02:45:09;;;;;;;3.00;2.72;;;;;;;;;;5059699;28;20415;-73
2021/06/20 02:47:35;;;;;;;3.25;2.95;;;;;;;;;;5056108;28;20185;-73
2021/06/20 02:50:00;;;;;;;2.40;2.20;;;;;;;;;;5055771;28;20227;-74
2021/06/20 02:52:25;;;;;;;2.67;2.40;;;;;;;;;;5055152;28;20637;-73
2021/06/20 02:54:51;;;;;;;2.05;1.85;;;;;;;;;;5058637;28;20304;-74
2021/06/20 02:57:18;;;;;;;2.90;2.28;;;;;;;;;;5060890;28;20650;-74
2021/06/20 02:59:43;;;;;;;2.20;2.00;;;;;;;;;;5052352;28;20177;-73
2021/06/20 03:02:08;;;;;;;3.47;1.83;;;;;;;;;;5052996;28;20633;-73
2021/06/20 03:04:33;;;;;;;2.30;1.70;;;;;;;;;;5062902;28;20231;-73
2021/06/20 03:06:58;;;;;;;2.78;1.90;;;;;;;;;;5064355;28;20185;-73
2021/06/20 03:09:24;;;;;;;1.80;1.65;;;;;;;;;;5052587;28;20205;-73
2021/06/20 03:11:49;;;;;;;1.42;1.25;;;;;;;;;;5056091;28;20181;-74
2021/06/20 03:14:15;;;;;;;1.70;1.60;;;;;;;;;;5053068;28;20298;-73
2021/06/20 03:16:40;;;;;;;2.10;1.70;;;;;;;;;;5060749;28;20229;-72
2021/06/20 03:19:06;;;;;;;1.83;1.63;;;;;;;;;;5078458;28;20269;-73
2021/06/20 03:21:32;;;;;;;1.88;1.65;;;;;;;;;;5082506;28;20280;-72
2021/06/20 03:23:57;;;;;;;1.73;1.23;;;;;;;;;;5081032;28;20185;-73
2021/06/20 03:26:22;;;;;;;1.40;1.30;;;;;;;;;;5082907;28;20180;-73
2021/06/20 03:28:47;;;;;;;1.70;1.60;;;;;;;;;;5085008;28;20186;-73
2021/06/20 03:31:13;;;;;;;1.20;1.10;;;;;;;;;;5086788;28;20193;-73
2021/06/20 03:33:38;;;;;;;1.40;1.30;;;;;;;;;;5084036;28;20209;-74
2021/06/20 03:36:04;;;;;;;1.30;1.20;;;;;;;;;;5082682;28;20193;-73
2021/06/20 03:38:29;;;;;;;1.63;1.52;;;;;;;;;;5085613;28;20188;-73
2021/06/20 03:40:55;;;;;;;1.67;1.27;;;;;;;;;;5083572;28;20268;-73
2021/06/20 03:43:20;;;;;;;1.98;1.35;;;;;;;;;;5081981;28;20693;-72
2021/06/20 03:45:45;;;;;;;1.48;1.38;;;;;;;;;;5063799;28;20722;-72
2021/06/20 03:48:10;;;;;;;1.48;1.33;;;;;;;;;;5053547;28;20676;-72
2021/06/20 03:50:35;;;;;;;1.45;1.35;;;;;;;;;;5055764;28;20181;-72
2021/06/20 03:53:01;;;;;;;1.60;1.40;;;;;;;;;;5054814;28;20209;-72
2021/06/20 03:55:26;;;;;;;1.55;1.45;;;;;;;;;;5056620;28;20179;-72
2021/06/20 03:57:51;;;;;;;1.95;1.40;;;;;;;;;;5055234;28;20181;-72
2021/06/20 04:00:16;;;;;;;1.90;1.52;;;;;;;;;;5053198;28;20177;-73
2021/06/20 04:02:42;;;;;;;1.52;1.40;;;;;;;;;;5056363;28;20899;-72
2021/06/20 04:05:09;;;;;;;3.00;1.58;;;;;;;;;;5053867;28;20700;-72
2021/06/20 04:07:34;;;;;;;2.17;1.30;;;;;;;;;;5065680;28;21485;-73
2021/06/20 04:09:59;;;;;;;1.30;1.20;;;;;;;;;;5053958;28;20177;-72
2021/06/20 04:12:24;;;;;;;1.40;1.30;;;;;;;;;;5057982;28;20201;-72
2021/06/20 04:14:50;;;;;;;1.30;1.20;;;;;;;;;;5059940;28;20615;-73
2021/06/20 04:17:15;;;;;;;2.45;1.27;;;;;;;;;;5054534;28;20671;-72
2021/06/20 04:19:40;;;;;;;1.90;1.17;;;;;;;;;;5059433;28;20172;-72
2021/06/20 04:22:05;;;;;;;1.00;0.90;;;;;;;;;;5055689;28;20180;-72
2021/06/20 04:24:31;;;;;;;1.55;1.00;;;;;;;;;;5055989;28;20327;-72
2021/06/20 04:26:56;;;;;;;1.63;1.52;;;;;;;;;;5055573;28;20173;-72
2021/06/20 04:29:21;;;;;;;2.22;0.80;;;;;;;;;;5055148;28;20313;-72
2021/06/20 04:31:46;;;;;;;1.10;1.00;;;;;;;;;;5056141;28;20193;-71
2021/06/20 04:34:12;;;;;;;1.38;1.27;;;;;;;;;;5060228;28;20216;-71
2021/06/20 04:36:37;;;;;;;2.03;0.80;;;;;;;;;;5055122;28;20177;-74
2021/06/20 04:39:05;;;;;;;0.90;0.80;;;;;;;;;;5053754;28;20285;-73
2021/06/20 04:41:30;;;;;;;0.95;0.90;;;;;;;;;;5058548;28;20179;-72
2021/06/20 04:43:59;;;;;;;2.72;1.00;;;;;;;;;;5055049;28;20440;-72
2021/06/20 04:46:28;;;;;;;2.03;0.90;;;;;;;;;;5060331;28;20686;-71
2021/06/20 04:49:04;;;;;;;0.95;0.80;;;;;;;;;;5053412;28;20271;-71
2021/06/20 04:51:32;;;;;;;0.65;0.65;;;;;;;;;;5060159;28;20600;-71
2021/06/20 04:53:58;;;;;;;0.82;0.82;;;;;;;;;;5055029;28;20289;-71
2021/06/20 04:56:23;;;;;;;0.98;0.90;;;;;;;;;;5054147;28;20549;-71
2021/06/20 04:58:48;;;;;;;1.25;1.00;;;;;;;;;;5053384;28;20578;-71
2021/06/20 05:01:13;;;;;;;1.35;0.63;;;;;;;;;;5057490;28;20231;-72
2021/06/20 05:03:39;;;;;;;1.15;0.70;;;;;;;;;;5053024;28;20648;-72
2021/06/20 05:06:04;;;;;;;0.90;0.57;;;;;;;;;;5058896;28;20179;-72
2021/06/20 05:08:29;;;;;;;1.73;0.85;;;;;;;;;;5056358;28;20184;-74
2021/06/20 05:10:55;;;;;;;0.95;0.95;;;;;;;;;;5062734;28;20192;-73
2021/06/20 05:13:20;;;;;;;1.35;1.25;;;;;;;;;;5052735;28;20219;-73
2021/06/20 05:15:46;;;;;;;0.75;0.75;;;;;;;;;;5056819;28;20205;-73
2021/06/20 05:18:11;;;;;;;1.58;0.80;;;;;;;;;;5055042;28;20177;-73
2021/06/20 05:20:37;;;;;;;0.80;0.75;;;;;;;;;;5053496;28;20181;-73
2021/06/20 05:23:02;;;;;;;1.30;0.80;;;;;;;;;;5054269;28;20311;-71
2021/06/20 05:25:27;;;;;;;0.95;0.80;;;;;;;;;;5055188;28;20237;-73
2021/06/20 05:27:53;;;;;;;1.52;1.00;;;;;;;;;;5054424;28;20265;-74
2021/06/20 05:30:18;;;;;;;1.38;1.02;;;;;;;;;;5054836;28;20217;-73
2021/06/20 05:32:43;;;;;;;1.00;0.88;;;;;;;;;;5054911;28;20213;-72
2021/06/20 05:35:09;;;;;;;0.80;0.80;;;;;;;;;;5052876;28;20197;-72
2021/06/20 05:37:34;;;;;;;0.88;0.88;;;;;;;;;;5053766;28;20178;-72
2021/06/20 05:39:59;;;;;;;2.50;1.30;;;;;;;;;;5059279;28;20292;-72
2021/06/20 05:42:24;;;;;;;1.35;1.25;;;;;;;;;;5056140;28;20181;-72
2021/06/20 05:44:49;;;;;;;3.42;1.80;;;;;;;;;;5059076;28;20197;-72
2021/06/20 05:47:15;;;;;;;1.50;1.40;;;;;;;;;;5052177;28;20528;-72
2021/06/20 05:49:40;;;;;;;1.50;1.38;;;;;;;;;;5050991;28;20180;-74
2021/06/20 05:52:05;;;;;;;2.13;1.35;;;;;;;;;;5052585;28;20684;-72
2021/06/20 05:54:30;;;;;;;1.83;1.73;;;;;;;;;;5055364;28;20278;-73
2021/06/20 05:56:56;;;;;;;1.58;1.40;;;;;;;;;;5052674;28;20257;-72
2021/06/20 05:59:21;;;;;;;2.90;1.73;;;;;;;;;;5055271;28;20181;-72
2021/06/20 06:01:46;;;;;;;1.92;1.83;;;;;;;;;;5054290;28;20196;-72
2021/06/20 06:04:11;;;;;;;1.90;1.65;;;;;;;;;;5050199;28;20212;-72
2021/06/20 06:06:36;;;;;;;1.88;1.77;;;;;;;;;;5054284;28;20184;-72
2021/06/20 06:09:02;;;;;;;1.70;1.60;;;;;;;;;;5052855;28;20205;-72
2021/06/20 06:11:28;;;;;;;2.30;1.83;;;;;;;;;;5062970;28;20184;-72
2021/06/20 06:13:54;;;;;;;1.77;1.67;;;;;;;;;;5052029;28;20212;-72
2021/06/20 06:16:19;;;;;;;2.28;2.08;;;;;;;;;;5056760;28;20650;-71
2021/06/20 06:18:45;;;;;;;1.85;1.70;;;;;;;;;;5051848;28;20181;-72
2021/06/20 06:21:10;;;;;;;1.67;1.40;;;;;;;;;;5050268;28;20308;-71
2021/06/20 06:23:35;;;;;;;1.35;1.25;;;;;;;;;;5052050;28;20207;-71
2021/06/20 06:26:01;;;;;;;1.63;1.52;;;;;;;;;;5049430;28;20176;-72
2021/06/20 06:28:26;;;;;;;2.28;2.08;;;;;;;;;;5049310;28;20181;-72
2021/06/20 06:30:51;;;;;;;2.97;1.95;;;;;;;;;;5051812;28;20209;-72
2021/06/20 06:33:16;;;;;;;2.42;2.33;;;;;;;;;;5049887;28;20209;-74
2021/06/20 06:35:42;;;;;;;2.40;2.20;;;;;;;;;;5052306;28;20224;-73
2021/06/20 06:38:07;;;;;;;2.90;2.70;;;;;;;;;;5051775;28;20303;-73
2021/06/20 06:40:32;;;;;;;3.30;3.10;;;;;;;;;;5051731;28;20277;-73
2021/06/20 06:42:57;;;;;;;3.63;3.33;;;;;;;;;;5053185;28;20271;-72
2021/06/20 06:45:23;;;;;;;3.80;3.50;;;;;;;;;;5059787;28;20196;-72
2021/06/20 06:47:48;;;;;;;4.05;3.75;;;;;;;;;;5053842;28;20220;-72
2021/06/20 06:50:13;;;;;;;4.13;3.78;;;;;;;;;;5058519;28;20604;-72
2021/06/20 06:52:38;;;;;;;4.30;4.00;;;;;;;;;;5053240;28;20258;-72
2021/06/20 06:55:05;;;;;;;4.70;4.32;;;;;;;;;;5050386;28;20324;-72
2021/06/20 06:57:31;;;;;;;4.13;3.80;;;;;;;;;;5053276;28;20176;-72
2021/06/20 06:59:57;;;;;;;4.28;3.95;;;;;;;;;;5056326;28;20643;-71
2021/06/20 07:02:23;;;;;;;3.83;3.63;;;;;;;;;;5054211;28;20173;-72
2021/06/20 07:04:48;;;;;;;4.13;3.83;;;;;;;;;;5057283;28;20208;-72
2021/06/20 07:07:13;;;;;;;4.80;4.40;;;;;;;;;;5055384;28;20211;-72
2021/06/20 07:09:39;;;;;;;4.40;4.00;;;;;;;;;;5051837;28;20655;-72
2021/06/20 07:12:04;;;;;;;4.15;3.85;;;;;;;;;;5063527;28;20674;-72
2021/06/20 07:14:33;;;;;;;3.65;3.38;;;;;;;;;;5058674;28;20210;-72
2021/06/20 07:16:58;;;;;;;3.72;3.42;;;;;;;;;;5053218;28;20713;-72
2021/06/20 07:19:24;;;;;;;4.40;4.00;;;;;;;;;;5058123;28;20191;-72
2021/06/20 07:21:49;;;;;;;4.00;3.70;;;;;;;;;;5060145;28;20432;-73
2021/06/20 07:24:14;;;;;;;4.17;3.87;;;;;;;;;;5056487;28;20495;-72
2021/06/20 07:26:39;;;;;;;4.35;4.05;;;;;;;;;;5054227;28;20480;-72
2021/06/20 07:29:04;;;;;;;4.88;4.45;;;;;;;;;;5055192;28;20940;-72
2021/06/20 07:31:30;;;;;;;4.43;3.97;;;;;;;;;;5054545;28;20231;-72
2021/06/20 07:33:55;;;;;;;4.80;4.50;;;;;;;;;;5054363;28;20521;-72
2021/06/20 07:36:20;;;;;;;4.18;3.88;;;;;;;;;;5053753;28;20208;-72
2021/06/20 07:38:46;;;;;;;4.22;3.92;;;;;;;;;;5055449;28;20176;-73
2021/06/20 07:41:11;;;;;;;4.82;4.53;;;;;;;;;;5058634;28;20672;-72
2021/06/20 07:43:37;;;;;;;5.18;4.50;;;;;;;;;;5063375;28;20196;-72
2021/06/20 07:46:02;;;;;;;4.07;3.67;;;;;;;;;;5059951;28;20189;-72
2021/06/20 07:48:28;;;;;;;4.43;4.13;;;;;;;;;;5059811;28;20239;-72
2021/06/20 07:50:53;;;;;;;5.28;4.93;;;;;;;;;;5058411;28;20694;-72
2021/06/20 07:53:18;;;;;;;5.50;4.70;;;;;;;;;;5056621;28;20291;-72
2021/06/20 07:55:43;;;;;;;4.50;4.20;;;;;;;;;;5075762;28;20177;-72
2021/06/20 07:58:09;;;;;;;4.38;4.05;;;;;;;;;;5079584;28;20437;-72
2021/06/20 08:00:34;;;;;;;5.25;4.85;;;;;;;;;;5083672;28;20197;-72
2021/06/20 08:02:59;;;;;;;5.00;4.60;;;;;;;;;;5080323;28;20200;-73
2021/06/20 08:05:24;;;;;;;4.95;4.65;;;;;;;;;;5086728;28;20172;-73
2021/06/20 08:07:50;;;;;;;5.25;4.75;;;;;;;;;;5075984;28;20188;-70
2021/06/20 08:10:15;;;;;;;4.47;4.18;;;;;;;;;;5089230;28;20189;-72
2021/06/20 08:12:42;;;;;;;4.97;4.68;;;;;;;;;;5081820;28;20215;-71
2021/06/20 08:15:07;;;;;;;4.57;4.28;;;;;;;;;;5080238;28;20205;-72
2021/06/20 08:17:32;;;;;;;4.70;4.40;;;;;;;;;;5079922;28;20202;-71
2021/06/20 08:19:57;;;;;;;5.13;4.73;;;;;;;;;;5084387;28;20180;-72
2021/06/20 08:22:23;;;;;;;4.70;4.40;;;;;;;;;;5071869;28;20463;-72
2021/06/20 08:24:49;;;;;;;4.72;4.40;;;;;;;;;;5059927;28;20233;-71
2021/06/20 08:27:15;;;;;;;4.80;4.50;;;;;;;;;;5051920;28;20184;-71
2021/06/20 08:29:40;;;;;;;5.03;4.72;;;;;;;;;;5051110;28;20169;-71
2021/06/20 08:32:05;;;;;;;5.70;5.30;;;;;;;;;;5051015;28;20173;-71
2021/06/20 08:34:32;;;;;;;6.50;6.07;;;;;;;;;;5050820;28;20270;-72
2021/06/20 08:36:58;;;;;;;6.35;5.95;;;;;;;;;;5052329;28;20230;-72
2021/06/20 08:39:23;;;;;;;7.10;6.50;;;;;;;;;;5051937;28;20204;-72
2021/06/20 08:41:48;;;;;;;6.73;6.23;;;;;;;;;;5061543;28;20168;-72
2021/06/20 08:44:24;;;;;;;7.78;7.25;;;;;;;;;;5052961;28;20796;-72
2021/06/20 08:46:49;;;;;;;7.20;6.70;;;;;;;;;;5063369;28;20180;-71
2021/06/20 08:49:14;;;;;;;6.90;6.40;;;;;;;;;;5065803;28;20185;-72
2021/06/20 08:51:41;;;;;;;7.68;7.07;;;;;;;;;;5055017;28;20186;-72
2021/06/20 08:54:06;;;;;;;7.18;6.68;;;;;;;;;;5053951;28;20262;-72
2021/06/20 08:56:33;;;;;;;7.35;6.85;;;;;;;;;;5053319;28;20219;-72
2021/06/20 08:58:58;;;;;;;7.00;6.50;;;;;;;;;;5049799;28;20181;-71
2021/06/20 09:01:24;;;;;;;9.07;8.17;;;;;;;;;;5055578;28;20176;-71
2021/06/20 09:03:49;;;;;;;6.78;6.28;;;;;;;;;;5051196;28;20441;-72
2021/06/20 09:06:16;;;;;;;7.30;6.60;;;;;;;;;;5054924;28;20232;-72
2021/06/20 09:08:46;;;;;;;7.38;6.78;;;;;;;;;;5049468;28;20421;-72
2021/06/20 09:11:20;;;;;;;6.55;6.05;;;;;;;;;;5050903;28;20177;-73
2021/06/20 09:13:46;;;;;;;7.07;6.43;;;;;;;;;;5050670;28;20638;-72
2021/06/20 09:16:11;;;;;;;7.07;6.50;;;;;;;;;;5050903;28;20627;-71
2021/06/20 09:18:36;;;;;;;8.13;7.22;;;;;;;;;;5049894;28;20211;-73
2021/06/20 09:21:08;;;;;;;7.40;6.80;;;;;;;;;;5056046;28;20669;-72
2021/06/20 09:23:38;;;;;;;7.35;6.68;;;;;;;;;;5051669;28;20272;-71
2021/06/20 09:26:03;;;;;;;9.07;7.03;;;;;;;;;;5057945;28;20197;-71
2021/06/20 09:28:36;;;;;;;10.40;8.90;;;;;;;;;;5053024;28;20268;-71
2021/06/20 09:31:03;;;;;;;8.30;7.50;;;;;;;;;;5059954;28;20479;-72
2021/06/20 09:33:32;;;;;;;8.93;6.05;;;;;;;;;;5058124;28;20220;-72
2021/06/20 09:35:58;;;;;;;6.72;6.03;;;;;;;;;;5058041;28;20186;-71
2021/06/20 09:38:23;;;;;;;6.60;6.00;;;;;;;;;;5053309;28;20174;-72
2021/06/20 09:40:52;;;;;;;8.90;7.22;;;;;;;;;;5060194;28;20674;-72
2021/06/20 09:43:19;;;;;;;11.13;8.00;;;;;;;;;;5047597;28;20276;-72
2021/06/20 09:45:45;;;;;;;10.55;7.63;;;;;;;;;;5059774;28;20180;-72
2021/06/20 09:48:21;;;;;;;9.35;7.82;;;;;;;;;;5049275;28;20558;-72
2021/06/20 09:50:46;;;;;;;11.23;9.45;;;;;;;;;;5060415;28;20207;-72
2021/06/20 09:53:11;;;;;;;9.60;8.47;;;;;;;;;;5049135;28;20629;-72
2021/06/20 09:55:36;;;;;;;8.53;6.47;;;;;;;;;;5060655;28;20520;-72
2021/06/20 09:58:02;;;;;;;10.55;7.07;;;;;;;;;;5051288;28;20418;-72
2021/06/20 10:00:38;;;;;;;9.10;7.93;;;;;;;;;;5054422;28;20828;-71
2021/06/20 10:03:04;;;;;;;12.32;11.02;;;;;;;;;;5051300;28;20187;-73
2021/06/20 10:05:29;;;;;;;14.35;9.77;;;;;;;;;;5059704;28;20196;-73
2021/06/20 10:07:54;;;;;;;8.33;6.10;;;;;;;;;;5053254;28;20191;-72
2021/06/20 10:10:19;;;;;;;11.90;7.37;;;;;;;;;;5051770;28;20437;-73
2021/06/20 10:12:44;;;;;;;14.50;10.55;;;;;;;;;;5052413;28;21962;-72
2021/06/20 10:15:11;;;;;;;13.63;11.40;;;;;;;;;;5049478;28;20582;-73
2021/06/20 10:17:38;;;;;;;19.38;12.68;;;;;;;;;;5050989;28;20591;-71
2021/06/20 10:20:06;;;;;;;17.63;12.02;;;;;;;;;;5053145;28;20181;-72
2021/06/20 10:22:36;;;;;;;20.23;14.98;;;;;;;;;;5056930;28;20795;-72
2021/06/20 10:25:05;;;;;;;19.08;14.55;;;;;;;;;;5063699;28;20206;-73
2021/06/20 10:27:32;;;;;;;15.02;12.18;;;;;;;;;;5061801;28;20180;-73
2021/06/20 10:29:58;;;;;;;18.23;14.68;;;;;;;;;;5062580;28;20303;-71
2021/06/20 10:32:25;;;;;;;22.20;16.48;;;;;;;;;;5057131;28;20185;-72
2021/06/20 10:34:57;;;;;;;22.63;17.17;;;;;;;;;;5055343;28;20228;-71
2021/06/20 10:37:23;;;;;;;22.42;15.88;;;;;;;;;;5058156;28;20185;-73
2021/06/20 10:39:49;;;;;;;21.83;17.33;;;;;;;;;;5070162;28;20193;-71
2021/06/20 10:42:14;;;;;;;22.40;17.48;;;;;;;;;;5056819;28;20541;-71
2021/06/20 10:44:47;;;;;;;20.35;14.57;;;;;;;;;;5060643;28;20223;-72
2021/06/20 10:47:24;;;;;;;13.30;11.00;;;;;;;;;;5057593;28;20184;-72
2021/06/20 10:49:56;;;;;;;18.48;12.00;;;;;;;;;;5054453;28;20272;-72
2021/06/20 10:52:22;;;;;;;15.60;11.90;;;;;;;;;;5060672;28;20177;-73
2021/06/20 10:54:52;;;;;;;14.88;10.82;;;;;;;;;;5067051;28;20218;-71
2021/06/20 10:57:23;;;;;;;12.70;10.38;;;;;;;;;;5055926;28;20204;-71
2021/06/20 10:59:56;;;;;;;14.55;11.38;;;;;;;;;;5059411;28;20181;-71
2021/06/20 11:02:23;;;;;;;14.77;10.93;;;;;;;;;;5053109;28;20185;-71
2021/06/20 11:04:48;;;;;;;8.30;6.22;;;;;;;;;;5053718;28;20319;-72
2021/06/20 11:07:21;;;;;;;4.63;3.65;;;;;;;;;;5051741;28;20278;-71
2021/06/20 11:09:46;;;;;;;6.47;4.43;;;;;;;;;;5056576;28;20185;-72
2021/06/20 11:12:15;;;;;;;7.33;5.77;;;;;;;;;;5056284;28;20200;-72
2021/06/20 11:14:44;;;;;;;5.10;3.78;;;;;;;;;;5059450;28;20988;-72
2021/06/20 11:17:09;;;;;;;4.15;3.72;;;;;;;;;;5055733;28;20189;-72
2021/06/20 11:19:34;;;;;;;9.63;4.63;;;;;;;;;;5055384;28;20181;-72
2021/06/20 11:22:01;;;;;;;5.57;4.87;;;;;;;;;;5055709;28;20186;-72
2021/06/20 11:24:29;;;;;;;3.75;3.38;;;;;;;;;;5056663;28;20479;-72
2021/06/20 11:27:13;;;;;;;3.50;3.00;;;;;;;;;;5055375;28;21195;-73
2021/06/20 11:29:49;;;;;;;3.42;2.63;;;;;;;;;;5054737;28;20193;-72
2021/06/20 11:32:14;;;;;;;2.35;2.15;;;;;;;;;;5058306;28;20187;-72
2021/06/20 11:34:42;;;;;;;2.57;2.37;;;;;;;;;;5053814;28;20213;-73
2021/06/20 11:37:14;;;;;;;2.65;2.13;;;;;;;;;;5055827;28;20428;-73
2021/06/20 11:39:39;;;;;;;4.43;3.10;;;;;;;;;;5053657;28;20195;-73
2021/06/20 11:42:05;;;;;;;2.70;2.23;;;;;;;;;;5054272;28;20836;-73
2021/06/20 11:44:30;;;;;;;4.03;2.72;;;;;;;;;;5062056;28;20469;-73
2021/06/20 11:46:55;;;;;;;4.70;3.00;;;;;;;;;;5061593;28;20676;-72
2021/06/20 11:49:23;;;;;;;3.97;2.55;;;;;;;;;;5054999;28;20522;-73
2021/06/20 11:51:54;;;;;;;3.42;2.47;;;;;;;;;;5052914;28;20669;-73
2021/06/20 11:54:22;;;;;;;3.20;3.00;;;;;;;;;;5059571;28;20271;-73
2021/06/20 11:56:49;;;;;;;3.65;2.55;;;;;;;;;;5056157;28;20808;-72
2021/06/20 11:59:15;;;;;;;2.50;2.30;;;;;;;;;;5058609;28;20184;-73
2021/06/20 12:01:48;;;;;;;3.50;2.65;;;;;;;;;;5058953;28;20242;-72
2021/06/20 12:04:20;;;;;;;3.88;2.33;;;;;;;;;;5055315;28;20212;-73
2021/06/20 12:06:46;;;;;;;3.13;2.83;;;;;;;;;;5051997;28;20208;-72
2021/06/20 12:09:11;;;;;;;3.30;3.00;;;;;;;;;;5053730;28;20177;-72
2021/06/20 12:11:37;;;;;;;2.92;2.22;;;;;;;;;;5055737;28;20196;-72
2021/06/20 12:14:03;;;;;;;2.97;2.45;;;;;;;;;;5054249;28;20615;-72
2021/06/20 12:16:29;;;;;;;3.30;2.45;;;;;;;;;;5055835;28;20182;-71
2021/06/20 12:18:56;;;;;;;2.40;2.20;;;;;;;;;;5052100;28;20294;-73
2021/06/20 12:21:25;;;;;;;3.55;3.25;;;;;;;;;;5055888;28;20186;-72
2021/06/20 12:23:54;;;;;;;2.97;2.78;;;;;;;;;;5054369;28;20204;-71
2021/06/20 12:26:27;;;;;;;3.30;3.03;;;;;;;;;;5060964;28;20733;-72
2021/06/20 12:28:52;;;;;;;2.40;2.20;;;;;;;;;;5054576;28;20196;-72
2021/06/20 12:31:17;;;;;;;3.38;3.00;;;;;;;;;;5056412;28;20177;-74
2021/06/20 12:33:42;;;;;;;3.38;3.08;;;;;;;;;;5058400;28;20217;-73
2021/06/20 12:36:09;;;;;;;3.70;3.40;;;;;;;;;;5063942;28;20251;-72
2021/06/20 12:38:34;;;;;;;3.88;3.50;;;;;;;;;;5072610;28;20173;-72
2021/06/20 12:40:59;;;;;;;3.20;2.95;;;;;;;;;;5081838;28;20189;-72
2021/06/20 12:43:25;;;;;;;4.63;3.17;;;;;;;;;;5070678;28;20230;-73
2021/06/20 12:46:07;;;;;;;4.57;3.40;;;;;;;;;;5083820;28;20180;-72
2021/06/20 12:48:33;;;;;;;3.33;2.97;;;;;;;;;;5074711;28;20260;-71
2021/06/20 12:50:58;;;;;;;3.10;2.80;;;;;;;;;;5080671;28;20185;-72
2021/06/20 12:53:31;;;;;;;5.13;4.63;;;;;;;;;;5071588;28;20223;-72
2021/06/20 12:55:57;;;;;;;3.97;3.55;;;;;;;;;;5061898;28;20532;-72
2021/06/20 12:58:23;;;;;;;4.10;3.47;;;;;;;;;;5061797;28;20670;-72
2021/06/20 13:00:57;;;;;;;5.20;3.33;;;;;;;;;;5051542;28;20188;-72
2021/06/20 13:03:26;;;;;;;4.20;3.80;;;;;;;;;;5055826;28;20199;-72
2021/06/20 13:05:52;;;;;;;5.28;3.60;;;;;;;;;;5054658;28;20244;-72
2021/06/20 13:08:26;;;;;;;6.63;3.00;;;;;;;;;;5068509;28;20682;-72
2021/06/20 13:10:51;;;;;;;4.07;3.28;;;;;;;;;;5058534;28;20567;-73
2021/06/20 13:13:16;;;;;;;4.13;3.58;;;;;;;;;;5059344;28;20214;-72
2021/06/20 13:15:42;;;;;;;5.17;3.77;;;;;;;;;;5055349;28;20177;-72
2021/06/20 13:18:07;;;;;;;4.50;3.50;;;;;;;;;;5054810;28;20463;-72
2021/06/20 13:20:33;;;;;;;4.35;3.42;;;;;;;;;;5056946;28;20439;-73
2021/06/20 13:22:58;;;;;;;3.55;3.25;;;;;;;;;;5054492;28;20778;-74
2021/06/20 13:25:24;;;;;;;3.50;2.75;;;;;;;;;;5053251;28;20184;-73
2021/06/20 13:27:50;;;;;;;8.13;3.05;;;;;;;;;;5052273;28;20411;-73
2021/06/20 13:30:16;;;;;;;4.35;2.90;;;;;;;;;;5057429;28;20181;-73
2021/06/20 13:32:42;;;;;;;4.25;3.28;;;;;;;;;;5055338;28;20185;-73
2021/06/20 13:35:09;;;;;;;4.43;3.80;;;;;;;;;;5049116;28;20697;-72
2021/06/20 13:37:34;;;;;;;5.13;3.60;;;;;;;;;;5051645;28;20280;-72
2021/06/20 13:39:59;;;;;;;3.55;2.63;;;;;;;;;;5057297;28;20924;-73
2021/06/20 13:42:25;;;;;;;5.20;3.30;;;;;;;;;;5054474;28;20278;-73
2021/06/20 13:44:50;;;;;;;4.22;3.78;;;;;;;;;;5056434;28;20971;-72
2021/06/20 13:47:15;;;;;;;4.03;3.63;;;;;;;;;;5048534;28;20212;-73
2021/06/20 13:49:41;;;;;;;4.40;3.40;;;;;;;;;;5052949;28;20264;-73
2021/06/20 13:52:06;;;;;;;3.40;2.65;;;;;;;;;;5050122;28;20417;-73
2021/06/20 13:54:31;;;;;;;4.32;3.78;;;;;;;;;;5051080;28;20294;-73
2021/06/20 13:56:57;;;;;;;4.40;4.00;;;;;;;;;;5054825;28;20207;-73
2021/06/20 13:59:23;;;;;;;3.53;3.13;;;;;;;;;;5059640;28;20824;-73
2021/06/20 14:01:49;;;;;;;5.68;4.07;;;;;;;;;;5053594;28;20186;-72
2021/06/20 14:04:14;;;;;;;5.07;3.72;;;;;;;;;;5052971;28;20204;-71
2021/06/20 14:06:40;;;;;;;4.68;4.20;;;;;;;;;;5050026;28;20189;-72
2021/06/20 14:09:07;;;;;;;5.10;4.20;;;;;;;;;;5065220;28;20458;-72
2021/06/20 14:11:32;;;;;;;4.70;4.20;;;;;;;;;;5054990;28;20183;-73
2021/06/20 14:13:57;;;;;;;5.72;4.90;;;;;;;;;;5051548;28;20213;-75
2021/06/20 14:16:23;;;;;;;4.30;3.90;;;;;;;;;;5059072;28;20185;-74
2021/06/20 14:18:48;;;;;;;5.30;4.47;;;;;;;;;;5049724;28;20307;-74
2021/06/20 14:21:13;;;;;;;5.45;4.55;;;;;;;;;;5051056;28;20956;-72
2021/06/20 14:23:38;;;;;;;5.07;4.57;;;;;;;;;;5052000;28;21463;-74
2021/06/20 14:26:04;;;;;;;5.82;5.03;;;;;;;;;;5059635;28;20173;-73
2021/06/20 14:28:29;;;;;;;5.63;5.00;;;;;;;;;;5050728;28;20303;-73
2021/06/20 14:30:54;;;;;;;6.15;5.15;;;;;;;;;;5053501;28;20787;-73